sensor_id;sensor_type;location;lat;lon;timestamp;pressure;altitude;pressure_sealevel;temperature;humidity
10079;BME280;5078;42.544;22.966;2023-05-11T00:00:33;94031.72;;;10.23;100.00
10079;BME280;5078;42.544;22.966;2023-05-11T00:03:01;94035.69;;;10.35;100.00
10079;BME280;5078;42.544;22.966;2023-05-11T00:05:28;94028.41;;;10.37;100.00
10079;BME280;5078;42.544;22.966;2023-05-11T00:07:54;94033.16;;;10.50;100.00
10079;BME280;5078;42.544;22.966;2023-05-11T00:10:21;94036.09;;;10.63;100.00
10079;BME280;5078;42.544;22.966;2023-05-11T00:12:48;94027.31;;;10.63;100.00
10079;BME280;5078;42.544;22.966;2023-05-11T00:15:15;94030.56;;;10.81;100.00
10079;BME280;5078;42.544;22.966;2023-05-11T00:17:42;94029.00;;;10.64;100.00
10079;BME280;5078;42.544;22.966;2023-05-11T00:20:11;94029.16;;;10.62;100.00
10079;BME280;5078;42.544;22.966;2023-05-11T00:22:37;94034.25;;;10.72;100.00
10079;BME280;5078;42.544;22.966;2023-05-11T00:25:05;94027.22;;;10.87;100.00
10079;BME280;5078;42.544;22.966;2023-05-11T00:27:32;94029.63;;;10.66;100.00
10079;BME280;5078;42.544;22.966;2023-05-11T00:29:59;94026.09;;;10.82;100.00
10079;BME280;5078;42.544;22.966;2023-05-11T00:32:26;94028.28;;;10.70;100.00
10079;BME280;5078;42.544;22.966;2023-05-11T00:34:52;94031.50;;;10.57;100.00
10079;BME280;5078;42.544;22.966;2023-05-11T00:37:22;94028.09;;;10.32;100.00
10079;BME280;5078;42.544;22.966;2023-05-11T00:39:48;94035.97;;;10.56;100.00
10079;BME280;5078;42.544;22.966;2023-05-11T00:42:15;94028.69;;;10.58;100.00
10079;BME280;5078;42.544;22.966;2023-05-11T00:44:42;94034.34;;;10.47;100.00
10079;BME280;5078;42.544;22.966;2023-05-11T00:47:09;94016.09;;;10.52;100.00
10079;BME280;5078;42.544;22.966;2023-05-11T00:49:35;94027.16;;;10.64;100.00
10079;BME280;5078;42.544;22.966;2023-05-11T00:52:03;94017.63;;;10.47;100.00
10079;BME280;5078;42.544;22.966;2023-05-11T00:54:32;94028.06;;;10.40;100.00
10079;BME280;5078;42.544;22.966;2023-05-11T00:56:58;94030.63;;;10.65;100.00
10079;BME280;5078;42.544;22.966;2023-05-11T00:59:25;94026.81;;;10.67;100.00
10079;BME280;5078;42.544;22.966;2023-05-11T01:01:52;94019.66;;;10.68;100.00
10079;BME280;5078;42.544;22.966;2023-05-11T01:04:19;94021.66;;;10.66;100.00
10079;BME280;5078;42.544;22.966;2023-05-11T01:06:52;94021.03;;;10.55;100.00
10079;BME280;5078;42.544;22.966;2023-05-11T01:09:29;94027.03;;;10.49;100.00
10079;BME280;5078;42.544;22.966;2023-05-11T01:12:07;94020.78;;;10.26;100.00
10079;BME280;5078;42.544;22.966;2023-05-11T01:14:42;94008.38;;;10.18;100.00
10079;BME280;5078;42.544;22.966;2023-05-11T01:17:29;94023.28;;;10.19;100.00
10079;BME280;5078;42.544;22.966;2023-05-11T01:20:04;94018.16;;;10.18;100.00
10079;BME280;5078;42.544;22.966;2023-05-11T01:22:42;94021.66;;;10.10;100.00
10079;BME280;5078;42.544;22.966;2023-05-11T01:25:17;94027.44;;;10.22;100.00
10079;BME280;5078;42.544;22.966;2023-05-11T01:28:09;94035.19;;;10.23;100.00
10079;BME280;5078;42.544;22.966;2023-05-11T01:30:47;94030.09;;;10.22;100.00
10079;BME280;5078;42.544;22.966;2023-05-11T01:33:21;94024.81;;;10.05;100.00
10079;BME280;5078;42.544;22.966;2023-05-11T01:35:52;94039.72;;;10.06;100.00
10079;BME280;5078;42.544;22.966;2023-05-11T01:38:23;94038.06;;;9.97;100.00
10079;BME280;5078;42.544;22.966;2023-05-11T01:40:55;94034.56;;;10.05;100.00
10079;BME280;5078;42.544;22.966;2023-05-11T01:43:25;94045.31;;;10.28;100.00
10079;BME280;5078;42.544;22.966;2023-05-11T01:45:58;94039.00;;;10.21;100.00
10079;BME280;5078;42.544;22.966;2023-05-11T01:48:28;94039.16;;;10.44;100.00
10079;BME280;5078;42.544;22.966;2023-05-11T01:50:59;94038.22;;;10.28;100.00
10079;BME280;5078;42.544;22.966;2023-05-11T01:53:31;94037.03;;;10.23;100.00
10079;BME280;5078;42.544;22.966;2023-05-11T01:55:58;94038.16;;;10.45;100.00
10079;BME280;5078;42.544;22.966;2023-05-11T01:58:27;94038.88;;;10.14;100.00
10079;BME280;5078;42.544;22.966;2023-05-11T02:00:56;94035.22;;;10.31;100.00
10079;BME280;5078;42.544;22.966;2023-05-11T02:03:26;94035.03;;;10.33;100.00
10079;BME280;5078;42.544;22.966;2023-05-11T02:05:54;94032.06;;;10.20;100.00
10079;BME280;5078;42.544;22.966;2023-05-11T02:08:24;94037.69;;;10.41;100.00
10079;BME280;5078;42.544;22.966;2023-05-11T02:10:52;94032.91;;;10.28;100.00
10079;BME280;5078;42.544;22.966;2023-05-11T02:13:21;94027.59;;;10.20;100.00
10079;BME280;5078;42.544;22.966;2023-05-11T02:15:50;94022.47;;;10.19;100.00
10079;BME280;5078;42.544;22.966;2023-05-11T02:18:20;94027.13;;;10.00;100.00
10079;BME280;5078;42.544;22.966;2023-05-11T02:20:47;94029.91;;;10.15;100.00
10079;BME280;5078;42.544;22.966;2023-05-11T02:23:14;94029.41;;;10.20;100.00
10079;BME280;5078;42.544;22.966;2023-05-11T02:25:42;94035.56;;;10.28;100.00
10079;BME280;5078;42.544;22.966;2023-05-11T02:28:10;94015.84;;;10.14;100.00
10079;BME280;5078;42.544;22.966;2023-05-11T02:30:40;94029.41;;;10.20;100.00
10079;BME280;5078;42.544;22.966;2023-05-11T02:33:14;94021.94;;;10.40;100.00
10079;BME280;5078;42.544;22.966;2023-05-11T02:35:46;94023.13;;;10.37;100.00
10079;BME280;5078;42.544;22.966;2023-05-11T02:38:14;94022.78;;;10.24;100.00
10079;BME280;5078;42.544;22.966;2023-05-11T02:40:45;94033.75;;;10.29;100.00
10079;BME280;5078;42.544;22.966;2023-05-11T02:43:19;94021.47;;;10.36;100.00
10079;BME280;5078;42.544;22.966;2023-05-11T02:45:49;94019.63;;;10.36;100.00
10079;BME280;5078;42.544;22.966;2023-05-11T02:48:24;94021.94;;;10.40;100.00
10079;BME280;5078;42.544;22.966;2023-05-11T02:50:54;94020.50;;;10.29;100.00
10079;BME280;5078;42.544;22.966;2023-05-11T02:53:26;94019.75;;;10.43;100.00
10079;BME280;5078;42.544;22.966;2023-05-11T02:55:53;94026.09;;;10.34;100.00
10079;BME280;5078;42.544;22.966;2023-05-11T02:58:21;94012.16;;;10.40;100.00
10079;BME280;5078;42.544;22.966;2023-05-11T03:00:47;94010.47;;;10.47;100.00
10079;BME280;5078;42.544;22.966;2023-05-11T03:03:14;94012.66;;;10.35;100.00
10079;BME280;5078;42.544;22.966;2023-05-11T03:05:41;94019.13;;;10.41;100.00
10079;BME280;5078;42.544;22.966;2023-05-11T03:08:09;94015.63;;;10.41;100.00
10079;BME280;5078;42.544;22.966;2023-05-11T03:10:36;94011.34;;;10.40;100.00
10079;BME280;5078;42.544;22.966;2023-05-11T03:13:04;94017.97;;;10.35;100.00
10079;BME280;5078;42.544;22.966;2023-05-11T03:15:32;94025.09;;;10.35;100.00
10079;BME280;5078;42.544;22.966;2023-05-11T03:18:00;94019.47;;;10.22;100.00
10079;BME280;5078;42.544;22.966;2023-05-11T03:20:29;94026.41;;;10.23;100.00
10079;BME280;5078;42.544;22.966;2023-05-11T03:22:57;94028.41;;;10.21;100.00
10079;BME280;5078;42.544;22.966;2023-05-11T03:25:25;94025.25;;;10.25;100.00
10079;BME280;5078;42.544;22.966;2023-05-11T03:27:53;94033.75;;;10.04;100.00
10079;BME280;5078;42.544;22.966;2023-05-11T03:30:21;94019.19;;;10.00;100.00
10079;BME280;5078;42.544;22.966;2023-05-11T03:32:48;94021.50;;;9.95;100.00
10079;BME280;5078;42.544;22.966;2023-05-11T03:35:15;94019.81;;;10.10;100.00
10079;BME280;5078;42.544;22.966;2023-05-11T03:37:43;94027.81;;;9.94;100.00
10079;BME280;5078;42.544;22.966;2023-05-11T03:40:11;94018.53;;;9.90;100.00
10079;BME280;5078;42.544;22.966;2023-05-11T03:42:41;94021.53;;;9.87;100.00
10079;BME280;5078;42.544;22.966;2023-05-11T03:45:12;94016.91;;;9.64;100.00
10079;BME280;5078;42.544;22.966;2023-05-11T03:47:40;94027.16;;;9.84;100.00
10079;BME280;5078;42.544;22.966;2023-05-11T03:50:09;94026.16;;;9.60;100.00
10079;BME280;5078;42.544;22.966;2023-05-11T03:52:36;94026.53;;;9.49;100.00
10079;BME280;5078;42.544;22.966;2023-05-11T03:55:04;94027.16;;;9.35;100.00
10079;BME280;5078;42.544;22.966;2023-05-11T03:57:31;94029.81;;;9.43;100.00
10079;BME280;5078;42.544;22.966;2023-05-11T03:59:59;94026.31;;;9.18;100.00
10079;BME280;5078;42.544;22.966;2023-05-11T04:02:26;94031.97;;;9.31;100.00
10079;BME280;5078;42.544;22.966;2023-05-11T04:04:53;94032.75;;;9.23;100.00
10079;BME280;5078;42.544;22.966;2023-05-11T04:07:20;94039.38;;;9.27;100.00
10079;BME280;5078;42.544;22.966;2023-05-11T04:09:46;94039.06;;;9.22;100.00
10079;BME280;5078;42.544;22.966;2023-05-11T04:12:13;94037.75;;;9.35;100.00
10079;BME280;5078;42.544;22.966;2023-05-11T04:14:40;94033.28;;;9.60;100.00
10079;BME280;5078;42.544;22.966;2023-05-11T04:17:08;94034.94;;;9.36;100.00
10079;BME280;5078;42.544;22.966;2023-05-11T04:19:35;94046.34;;;9.53;100.00
10079;BME280;5078;42.544;22.966;2023-05-11T04:22:01;94044.72;;;9.52;100.00
10079;BME280;5078;42.544;22.966;2023-05-11T04:24:28;94050.66;;;9.54;100.00
10079;BME280;5078;42.544;22.966;2023-05-11T04:26:55;94047.84;;;9.56;100.00
10079;BME280;5078;42.544;22.966;2023-05-11T04:29:22;94051.97;;;9.34;100.00
10079;BME280;5078;42.544;22.966;2023-05-11T04:31:49;94056.59;;;9.40;100.00
10079;BME280;5078;42.544;22.966;2023-05-11T04:34:17;94058.25;;;9.33;100.00
10079;BME280;5078;42.544;22.966;2023-05-11T04:36:46;94059.41;;;9.38;100.00
10079;BME280;5078;42.544;22.966;2023-05-11T04:39:13;94061.19;;;9.13;100.00
10079;BME280;5078;42.544;22.966;2023-05-11T04:41:40;94060.50;;;9.03;100.00
10079;BME280;5078;42.544;22.966;2023-05-11T04:44:07;94066.78;;;9.02;100.00
10079;BME280;5078;42.544;22.966;2023-05-11T04:46:33;94069.78;;;9.07;100.00
10079;BME280;5078;42.544;22.966;2023-05-11T04:49:01;94068.16;;;9.31;100.00
10079;BME280;5078;42.544;22.966;2023-05-11T04:51:30;94069.97;;;9.22;100.00
10079;BME280;5078;42.544;22.966;2023-05-11T04:53:56;94074.97;;;9.41;100.00
10079;BME280;5078;42.544;22.966;2023-05-11T04:56:23;94074.16;;;9.65;100.00
10079;BME280;5078;42.544;22.966;2023-05-11T04:58:50;94076.66;;;9.59;100.00
10079;BME280;5078;42.544;22.966;2023-05-11T05:01:17;94080.47;;;9.89;100.00
10079;BME280;5078;42.544;22.966;2023-05-11T05:03:47;94090.22;;;9.97;100.00
10079;BME280;5078;42.544;22.966;2023-05-11T05:06:13;94075.81;;;9.99;100.00
10079;BME280;5078;42.544;22.966;2023-05-11T05:08:42;94076.13;;;10.04;100.00
10079;BME280;5078;42.544;22.966;2023-05-11T05:11:08;94084.28;;;9.86;100.00
10079;BME280;5078;42.544;22.966;2023-05-11T05:13:35;94078.47;;;9.83;100.00
10079;BME280;5078;42.544;22.966;2023-05-11T05:16:02;94089.88;;;9.75;100.00
10079;BME280;5078;42.544;22.966;2023-05-11T05:18:29;94077.97;;;9.63;100.00
10079;BME280;5078;42.544;22.966;2023-05-11T05:20:55;94084.59;;;9.67;100.00
10079;BME280;5078;42.544;22.966;2023-05-11T05:23:22;94093.31;;;9.43;100.00
10079;BME280;5078;42.544;22.966;2023-05-11T05:25:50;94082.59;;;9.44;100.00
10079;BME280;5078;42.544;22.966;2023-05-11T05:28:17;94091.88;;;9.48;100.00
10079;BME280;5078;42.544;22.966;2023-05-11T05:30:44;94094.34;;;9.66;100.00
10079;BME280;5078;42.544;22.966;2023-05-11T05:33:10;94089.22;;;9.57;100.00
10079;BME280;5078;42.544;22.966;2023-05-11T05:35:37;94096.00;;;9.67;100.00
10079;BME280;5078;42.544;22.966;2023-05-11T05:38:04;94097.97;;;9.49;100.00
10079;BME280;5078;42.544;22.966;2023-05-11T05:40:30;94100.81;;;9.64;100.00
10079;BME280;5078;42.544;22.966;2023-05-11T05:43:02;94101.63;;;9.81;100.00
10079;BME280;5078;42.544;22.966;2023-05-11T05:45:29;94106.44;;;9.69;100.00
10079;BME280;5078;42.544;22.966;2023-05-11T05:47:56;94104.63;;;9.69;100.00
10079;BME280;5078;42.544;22.966;2023-05-11T05:50:24;94107.94;;;9.80;100.00
10079;BME280;5078;42.544;22.966;2023-05-11T05:52:51;94106.25;;;10.03;100.00
10079;BME280;5078;42.544;22.966;2023-05-11T05:55:18;94109.19;;;9.43;100.00
10079;BME280;5078;42.544;22.966;2023-05-11T05:57:45;94106.59;;;9.67;100.00
10079;BME280;5078;42.544;22.966;2023-05-11T06:00:14;94119.28;;;9.39;100.00
10079;BME280;5078;42.544;22.966;2023-05-11T06:02:41;94117.34;;;9.66;100.00
10079;BME280;5078;42.544;22.966;2023-05-11T06:05:09;94115.63;;;9.32;100.00
10079;BME280;5078;42.544;22.966;2023-05-11T06:07:35;94117.47;;;9.48;100.00
10079;BME280;5078;42.544;22.966;2023-05-11T06:10:03;94116.03;;;9.78;100.00
10079;BME280;5078;42.544;22.966;2023-05-11T06:12:29;94123.81;;;9.80;100.00
10079;BME280;5078;42.544;22.966;2023-05-11T06:14:56;94122.50;;;10.00;100.00
10079;BME280;5078;42.544;22.966;2023-05-11T06:17:24;94123.00;;;9.71;100.00
10079;BME280;5078;42.544;22.966;2023-05-11T06:19:52;94125.69;;;9.20;100.00
10079;BME280;5078;42.544;22.966;2023-05-11T06:22:19;94128.53;;;9.35;100.00
10079;BME280;5078;42.544;22.966;2023-05-11T06:24:46;94129.13;;;9.71;100.00
10079;BME280;5078;42.544;22.966;2023-05-11T06:27:12;94125.78;;;9.69;100.00
10079;BME280;5078;42.544;22.966;2023-05-11T06:29:39;94131.59;;;9.81;100.00
10079;BME280;5078;42.544;22.966;2023-05-11T06:32:06;94135.41;;;9.79;100.00
10079;BME280;5078;42.544;22.966;2023-05-11T06:34:34;94133.91;;;9.84;100.00
10079;BME280;5078;42.544;22.966;2023-05-11T06:37:01;94137.72;;;9.74;100.00
10079;BME280;5078;42.544;22.966;2023-05-11T06:39:28;94144.00;;;9.64;100.00
10079;BME280;5078;42.544;22.966;2023-05-11T06:41:55;94130.91;;;9.63;100.00
10079;BME280;5078;42.544;22.966;2023-05-11T06:44:21;94132.44;;;9.74;100.00
10079;BME280;5078;42.544;22.966;2023-05-11T06:46:48;94115.84;;;9.55;100.00
10079;BME280;5078;42.544;22.966;2023-05-11T06:49:15;94133.09;;;9.84;100.00
10079;BME280;5078;42.544;22.966;2023-05-11T06:51:43;94132.56;;;9.80;100.00
10079;BME280;5078;42.544;22.966;2023-05-11T06:54:09;94122.00;;;9.97;100.00
10079;BME280;5078;42.544;22.966;2023-05-11T06:56:36;94127.28;;;9.80;100.00
10079;BME280;5078;42.544;22.966;2023-05-11T06:59:03;94130.75;;;9.81;100.00
10079;BME280;5078;42.544;22.966;2023-05-11T07:01:30;94129.78;;;9.98;100.00
10079;BME280;5078;42.544;22.966;2023-05-11T07:03:56;94135.06;;;10.14;100.00
10079;BME280;5078;42.544;22.966;2023-05-11T07:06:23;94128.81;;;10.32;100.00
10079;BME280;5078;42.544;22.966;2023-05-11T07:08:51;94137.06;;;10.45;100.00
10079;BME280;5078;42.544;22.966;2023-05-11T07:11:18;94136.75;;;10.48;100.00
10079;BME280;5078;42.544;22.966;2023-05-11T07:13:44;94140.00;;;10.67;100.00
10079;BME280;5078;42.544;22.966;2023-05-11T07:16:11;94133.88;;;10.66;100.00
10079;BME280;5078;42.544;22.966;2023-05-11T07:18:38;94126.09;;;10.65;100.00
10079;BME280;5078;42.544;22.966;2023-05-11T07:21:05;94131.91;;;10.60;100.00
10079;BME280;5078;42.544;22.966;2023-05-11T07:23:31;94130.13;;;10.44;100.00
10079;BME280;5078;42.544;22.966;2023-05-11T07:25:59;94127.63;;;10.34;100.00
10079;BME280;5078;42.544;22.966;2023-05-11T07:28:28;94137.06;;;10.12;100.00
10079;BME280;5078;42.544;22.966;2023-05-11T07:30:55;94133.09;;;10.33;100.00
10079;BME280;5078;42.544;22.966;2023-05-11T07:33:21;94135.06;;;10.14;100.00
10079;BME280;5078;42.544;22.966;2023-05-11T07:35:50;94138.88;;;10.12;100.00
10079;BME280;5078;42.544;22.966;2023-05-11T07:38:17;94138.75;;;10.30;100.00
10079;BME280;5078;42.544;22.966;2023-05-11T07:40:43;94139.22;;;10.42;100.00
10079;BME280;5078;42.544;22.966;2023-05-11T07:43:11;94142.69;;;10.58;100.00
10079;BME280;5078;42.544;22.966;2023-05-11T07:45:38;94152.16;;;10.36;100.00
10079;BME280;5078;42.544;22.966;2023-05-11T07:48:05;94148.97;;;10.57;100.00
10079;BME280;5078;42.544;22.966;2023-05-11T07:50:32;94148.63;;;10.69;100.00
10079;BME280;5078;42.544;22.966;2023-05-11T07:52:58;94143.69;;;10.49;100.00
10079;BME280;5078;42.544;22.966;2023-05-11T07:55:25;94145.66;;;10.64;100.00
10079;BME280;5078;42.544;22.966;2023-05-11T07:57:54;94140.44;;;10.87;100.00
10079;BME280;5078;42.544;22.966;2023-05-11T08:00:22;94152.38;;;10.91;100.00
10079;BME280;5078;42.544;22.966;2023-05-11T08:02:49;94157.34;;;10.94;100.00
10079;BME280;5078;42.544;22.966;2023-05-11T08:05:17;94150.91;;;10.80;100.00
10079;BME280;5078;42.544;22.966;2023-05-11T08:07:45;94153.94;;;10.61;100.00
10079;BME280;5078;42.544;22.966;2023-05-11T08:10:12;94155.59;;;10.62;100.00
10079;BME280;5078;42.544;22.966;2023-05-11T08:12:38;94155.88;;;10.83;100.00
10079;BME280;5078;42.544;22.966;2023-05-11T08:15:06;94151.53;;;10.98;100.00
10079;BME280;5078;42.544;22.966;2023-05-11T08:17:34;94152.59;;;10.81;100.00
10079;BME280;5078;42.544;22.966;2023-05-11T08:20:01;94152.19;;;10.92;100.00
10079;BME280;5078;42.544;22.966;2023-05-11T08:22:28;94151.22;;;10.93;100.00
10079;BME280;5078;42.544;22.966;2023-05-11T08:24:55;94153.13;;;10.52;100.00
10079;BME280;5078;42.544;22.966;2023-05-11T08:27:22;94152.66;;;10.48;100.00
10079;BME280;5078;42.544;22.966;2023-05-11T08:29:49;94153.34;;;10.98;100.00
10079;BME280;5078;42.544;22.966;2023-05-11T08:32:16;94143.63;;;10.82;100.00
10079;BME280;5078;42.544;22.966;2023-05-11T08:34:44;94143.63;;;10.66;100.00
10079;BME280;5078;42.544;22.966;2023-05-11T08:37:11;94147.94;;;10.75;100.00
10079;BME280;5078;42.544;22.966;2023-05-11T08:39:38;94139.56;;;11.02;100.00
10079;BME280;5078;42.544;22.966;2023-05-11T08:42:04;94142.06;;;11.43;100.00
10079;BME280;5078;42.544;22.966;2023-05-11T08:44:33;94138.16;;;11.54;100.00
10079;BME280;5078;42.544;22.966;2023-05-11T08:47:02;94134.88;;;11.75;100.00
10079;BME280;5078;42.544;22.966;2023-05-11T08:49:30;94141.06;;;11.99;100.00
10079;BME280;5078;42.544;22.966;2023-05-11T08:52:02;94142.34;;;12.26;100.00
10079;BME280;5078;42.544;22.966;2023-05-11T08:54:29;94135.69;;;12.45;100.00
10079;BME280;5078;42.544;22.966;2023-05-11T08:56:56;94138.16;;;12.32;100.00
10079;BME280;5078;42.544;22.966;2023-05-11T08:59:25;94130.38;;;12.45;100.00
10079;BME280;5078;42.544;22.966;2023-05-11T09:01:52;94133.91;;;12.22;100.00
10079;BME280;5078;42.544;22.966;2023-05-11T09:04:20;94122.81;;;12.19;100.00
10079;BME280;5078;42.544;22.966;2023-05-11T09:06:48;94131.50;;;12.65;100.00
10079;BME280;5078;42.544;22.966;2023-05-11T09:09:17;94133.91;;;12.90;100.00
10079;BME280;5078;42.544;22.966;2023-05-11T09:11:44;94133.06;;;12.74;100.00
10079;BME280;5078;42.544;22.966;2023-05-11T09:14:12;94132.81;;;12.69;100.00
10079;BME280;5078;42.544;22.966;2023-05-11T09:16:38;94137.19;;;12.62;100.00
10079;BME280;5078;42.544;22.966;2023-05-11T09:19:05;94139.34;;;12.97;100.00
10079;BME280;5078;42.544;22.966;2023-05-11T09:21:32;94130.75;;;12.42;100.00
10079;BME280;5078;42.544;22.966;2023-05-11T09:23:59;94124.19;;;11.92;100.00
10079;BME280;5078;42.544;22.966;2023-05-11T09:26:32;94125.84;;;12.16;100.00
10079;BME280;5078;42.544;22.966;2023-05-11T09:28:59;94103.66;;;12.23;100.00
10079;BME280;5078;42.544;22.966;2023-05-11T09:31:37;94115.44;;;12.06;100.00
10079;BME280;5078;42.544;22.966;2023-05-11T09:34:14;94106.75;;;12.12;100.00
10079;BME280;5078;42.544;22.966;2023-05-11T09:36:41;94099.75;;;12.34;100.00
10079;BME280;5078;42.544;22.966;2023-05-11T09:39:09;94100.22;;;12.52;100.00
10079;BME280;5078;42.544;22.966;2023-05-11T09:41:37;94107.09;;;12.62;100.00
10079;BME280;5078;42.544;22.966;2023-05-11T09:44:06;94102.41;;;12.49;100.00
10079;BME280;5078;42.544;22.966;2023-05-11T09:46:35;94105.06;;;12.49;100.00
10079;BME280;5078;42.544;22.966;2023-05-11T09:49:02;94100.88;;;12.69;100.00
10079;BME280;5078;42.544;22.966;2023-05-11T09:51:31;94089.69;;;13.04;100.00
10079;BME280;5078;42.544;22.966;2023-05-11T09:53:58;94087.75;;;13.27;100.00
10079;BME280;5078;42.544;22.966;2023-05-11T09:56:45;94084.53;;;13.32;100.00
10079;BME280;5078;42.544;22.966;2023-05-11T09:59:14;94083.78;;;13.23;100.00
10079;BME280;5078;42.544;22.966;2023-05-11T10:01:41;94067.94;;;13.51;100.00
10079;BME280;5078;42.544;22.966;2023-05-11T10:04:08;94074.75;;;13.75;100.00
10079;BME280;5078;42.544;22.966;2023-05-11T10:06:46;94073.28;;;13.94;100.00
10079;BME280;5078;42.544;22.966;2023-05-11T10:09:15;94075.78;;;13.96;100.00
10079;BME280;5078;42.544;22.966;2023-05-11T10:11:45;94079.06;;;13.40;100.00
10079;BME280;5078;42.544;22.966;2023-05-11T10:14:12;94069.28;;;13.62;100.00
10079;BME280;5078;42.544;22.966;2023-05-11T10:16:41;94075.38;;;13.56;100.00
10079;BME280;5078;42.544;22.966;2023-05-11T10:19:08;94074.03;;;13.30;100.00
10079;BME280;5078;42.544;22.966;2023-05-11T10:21:36;94070.56;;;13.15;100.00
10079;BME280;5078;42.544;22.966;2023-05-11T10:24:03;94069.13;;;12.83;100.00
10079;BME280;5078;42.544;22.966;2023-05-11T10:26:30;94062.91;;;12.76;100.00
10079;BME280;5078;42.544;22.966;2023-05-11T10:29:00;94053.53;;;12.80;100.00
10079;BME280;5078;42.544;22.966;2023-05-11T10:31:27;94062.97;;;12.67;100.00
10079;BME280;5078;42.544;22.966;2023-05-11T10:33:54;94065.91;;;12.72;100.00
10079;BME280;5078;42.544;22.966;2023-05-11T10:36:22;94076.56;;;12.87;100.00
10079;BME280;5078;42.544;22.966;2023-05-11T10:38:49;94070.50;;;13.08;100.00
10079;BME280;5078;42.544;22.966;2023-05-11T10:41:29;94064.25;;;13.16;100.00
10079;BME280;5078;42.544;22.966;2023-05-11T10:44:19;94073.28;;;13.51;100.00
10079;BME280;5078;42.544;22.966;2023-05-11T10:46:59;94069.34;;;13.69;100.00
10079;BME280;5078;42.544;22.966;2023-05-11T10:49:50;94076.63;;;13.60;100.00
10079;BME280;5078;42.544;22.966;2023-05-11T10:52:51;94071.94;;;13.41;100.00
10079;BME280;5078;42.544;22.966;2023-05-11T10:55:34;94069.59;;;13.52;100.00
10079;BME280;5078;42.544;22.966;2023-05-11T10:58:06;94067.59;;;13.76;100.00
10079;BME280;5078;42.544;22.966;2023-05-11T11:01:14;94070.06;;;13.99;100.00
10079;BME280;5078;42.544;22.966;2023-05-11T11:03:55;94065.09;;;13.74;100.00
10079;BME280;5078;42.544;22.966;2023-05-11T11:06:22;94067.78;;;13.96;100.00
10079;BME280;5078;42.544;22.966;2023-05-11T11:08:57;94067.06;;;13.87;100.00
10079;BME280;5078;42.544;22.966;2023-05-11T11:11:32;94068.06;;;14.08;100.00
10079;BME280;5078;42.544;22.966;2023-05-11T11:14:00;94063.72;;;13.78;100.00
10079;BME280;5078;42.544;22.966;2023-05-11T11:16:31;94061.84;;;13.36;100.00
10079;BME280;5078;42.544;22.966;2023-05-11T11:19:36;94061.72;;;13.44;100.00
10079;BME280;5078;42.544;22.966;2023-05-11T11:22:04;94065.84;;;13.47;100.00
10079;BME280;5078;42.544;22.966;2023-05-11T11:24:44;94059.22;;;13.79;100.00
10079;BME280;5078;42.544;22.966;2023-05-11T11:27:12;94059.31;;;13.92;100.00
10079;BME280;5078;42.544;22.966;2023-05-11T11:29:39;94055.44;;;13.95;100.00
10079;BME280;5078;42.544;22.966;2023-05-11T11:32:25;94061.81;;;13.94;100.00
10079;BME280;5078;42.544;22.966;2023-05-11T11:34:52;94061.16;;;13.92;100.00
10079;BME280;5078;42.544;22.966;2023-05-11T11:37:19;94057.22;;;13.88;100.00
10079;BME280;5078;42.544;22.966;2023-05-11T11:39:52;94050.56;;;13.98;100.00
10079;BME280;5078;42.544;22.966;2023-05-11T11:42:33;94053.88;;;14.00;100.00
10079;BME280;5078;42.544;22.966;2023-05-11T11:48:27;94046.03;;;14.20;100.00
10079;BME280;5078;42.544;22.966;2023-05-11T11:51:03;94047.69;;;14.21;100.00
10079;BME280;5078;42.544;22.966;2023-05-11T11:54:03;94050.69;;;14.40;100.00
10079;BME280;5078;42.544;22.966;2023-05-11T11:56:43;94055.59;;;13.87;100.00
10079;BME280;5078;42.544;22.966;2023-05-11T11:59:13;94052.03;;;14.01;100.00
10079;BME280;5078;42.544;22.966;2023-05-11T12:01:42;94049.16;;;14.02;100.00
10079;BME280;5078;42.544;22.966;2023-05-11T12:04:19;94046.72;;;14.29;100.00
10079;BME280;5078;42.544;22.966;2023-05-11T12:06:55;94036.09;;;14.36;100.00
10079;BME280;5078;42.544;22.966;2023-05-11T12:09:22;94035.28;;;14.70;100.00
10079;BME280;5078;42.544;22.966;2023-05-11T12:11:49;94040.38;;;14.93;100.00
10079;BME280;5078;42.544;22.966;2023-05-11T12:14:16;94034.63;;;14.96;100.00
10079;BME280;5078;42.544;22.966;2023-05-11T12:16:59;94031.47;;;14.51;100.00
10079;BME280;5078;42.544;22.966;2023-05-11T12:19:27;94031.56;;;14.58;100.00
10079;BME280;5078;42.544;22.966;2023-05-11T12:21:53;94028.00;;;14.85;100.00
10079;BME280;5078;42.544;22.966;2023-05-11T12:24:20;94031.81;;;15.11;100.00
10079;BME280;5078;42.544;22.966;2023-05-11T12:26:47;94037.47;;;14.95;100.00
10079;BME280;5078;42.544;22.966;2023-05-11T12:29:14;94029.09;;;14.98;100.00
10079;BME280;5078;42.544;22.966;2023-05-11T12:31:43;94021.41;;;15.29;100.00
10079;BME280;5078;42.544;22.966;2023-05-11T12:34:13;94024.72;;;15.38;100.00
10079;BME280;5078;42.544;22.966;2023-05-11T12:36:44;94019.47;;;15.10;100.00
10079;BME280;5078;42.544;22.966;2023-05-11T12:39:16;94017.09;;;15.28;100.00
10079;BME280;5078;42.544;22.966;2023-05-11T12:41:43;94013.44;;;15.49;100.00
10079;BME280;5078;42.544;22.966;2023-05-11T12:44:10;94012.41;;;15.44;96.50
10079;BME280;5078;42.544;22.966;2023-05-11T12:46:37;94010.53;;;15.31;99.59
10079;BME280;5078;42.544;22.966;2023-05-11T12:49:04;94010.81;;;15.01;100.00
10079;BME280;5078;42.544;22.966;2023-05-11T12:51:50;94006.84;;;15.39;95.98
10079;BME280;5078;42.544;22.966;2023-05-11T12:54:28;93995.31;;;15.31;96.53
10079;BME280;5078;42.544;22.966;2023-05-11T12:56:55;93997.41;;;15.43;94.90
10079;BME280;5078;42.544;22.966;2023-05-11T12:59:33;93995.91;;;15.27;91.21
10079;BME280;5078;42.544;22.966;2023-05-11T13:02:08;93986.66;;;14.75;97.50
10079;BME280;5078;42.544;22.966;2023-05-11T13:04:35;93993.94;;;14.53;98.22
10079;BME280;5078;42.544;22.966;2023-05-11T13:07:04;93993.09;;;14.87;96.52